sensor_id;sensor_type;location;lat;lon;timestamp;P1;durP1;ratioP1;P2;durP2;ratioP2
68505;SDS011;55509;50.680;17.942;2022-10-15T00:00:19;40.10;;;25.20;;
68505;SDS011;55509;50.680;17.942;2022-10-15T00:03:42;41.60;;;26.00;;
68505;SDS011;55509;50.680;17.942;2022-10-15T00:06:44;43.00;;;23.90;;
68505;SDS011;55509;50.680;17.942;2022-10-15T00:09:46;40.40;;;23.70;;
68505;SDS011;55509;50.680;17.942;2022-10-15T00:15:49;38.70;;;22.20;;
68505;SDS011;55509;50.680;17.942;2022-10-15T00:18:51;27.80;;;20.00;;
68505;SDS011;55509;50.680;17.942;2022-10-15T00:21:55;34.10;;;21.40;;
68505;SDS011;55509;50.680;17.942;2022-10-15T00:27:59;34.10;;;23.20;;
68505;SDS011;55509;50.680;17.942;2022-10-15T00:31:04;30.20;;;21.40;;
68505;SDS011;55509;50.680;17.942;2022-10-15T00:34:11;29.20;;;20.40;;
68505;SDS011;55509;50.680;17.942;2022-10-15T00:37:12;36.00;;;21.30;;
68505;SDS011;55509;50.680;17.942;2022-10-15T00:43:15;36.00;;;20.90;;
68505;SDS011;55509;50.680;17.942;2022-10-15T00:49:27;36.50;;;20.20;;
68505;SDS011;55509;50.680;17.942;2022-10-15T00:55:38;27.20;;;17.90;;
68505;SDS011;55509;50.680;17.942;2022-10-15T00:58:41;27.40;;;18.40;;
68505;SDS011;55509;50.680;17.942;2022-10-15T01:01:43;26.90;;;16.40;;
68505;SDS011;55509;50.680;17.942;2022-10-15T01:04:45;30.80;;;21.20;;
68505;SDS011;55509;50.680;17.942;2022-10-15T01:07:48;26.80;;;16.70;;
68505;SDS011;55509;50.680;17.942;2022-10-15T01:11:14;25.00;;;17.90;;
68505;SDS011;55509;50.680;17.942;2022-10-15T01:27:54;33.70;;;18.60;;
68505;SDS011;55509;50.680;17.942;2022-10-15T01:31:08;32.20;;;21.40;;
68505;SDS011;55509;50.680;17.942;2022-10-15T01:34:24;28.80;;;19.10;;
68505;SDS011;55509;50.680;17.942;2022-10-15T01:37:39;32.90;;;20.20;;
68505;SDS011;55509;50.680;17.942;2022-10-15T01:44:02;36.40;;;18.40;;
68505;SDS011;55509;50.680;17.942;2022-10-15T01:47:06;31.40;;;18.20;;
68505;SDS011;55509;50.680;17.942;2022-10-15T01:50:12;32.70;;;20.80;;
68505;SDS011;55509;50.680;17.942;2022-10-15T01:53:18;30.40;;;19.70;;
68505;SDS011;55509;50.680;17.942;2022-10-15T01:56:26;25.10;;;17.40;;
68505;SDS011;55509;50.680;17.942;2022-10-15T01:59:30;30.80;;;17.60;;
68505;SDS011;55509;50.680;17.942;2022-10-15T02:02:33;25.00;;;15.70;;
68505;SDS011;55509;50.680;17.942;2022-10-15T02:05:36;20.00;;;16.00;;
68505;SDS011;55509;50.680;17.942;2022-10-15T02:15:56;29.50;;;16.20;;
68505;SDS011;55509;50.680;17.942;2022-10-15T02:19:21;23.50;;;15.40;;
68505;SDS011;55509;50.680;17.942;2022-10-15T02:23:09;24.40;;;15.40;;
68505;SDS011;55509;50.680;17.942;2022-10-15T02:26:12;23.70;;;16.30;;
68505;SDS011;55509;50.680;17.942;2022-10-15T02:29:17;17.80;;;12.70;;
68505;SDS011;55509;50.680;17.942;2022-10-15T02:32:21;23.20;;;14.70;;
68505;SDS011;55509;50.680;17.942;2022-10-15T02:35:25;19.20;;;12.90;;
68505;SDS011;55509;50.680;17.942;2022-10-15T02:38:27;22.60;;;15.70;;
68505;SDS011;55509;50.680;17.942;2022-10-15T02:41:33;21.50;;;16.80;;
68505;SDS011;55509;50.680;17.942;2022-10-15T02:44:36;23.70;;;15.70;;
68505;SDS011;55509;50.680;17.942;2022-10-15T02:47:38;25.10;;;15.00;;
68505;SDS011;55509;50.680;17.942;2022-10-15T02:50:39;18.00;;;12.20;;
68505;SDS011;55509;50.680;17.942;2022-10-15T02:56:42;26.10;;;16.50;;
68505;SDS011;55509;50.680;17.942;2022-10-15T02:59:44;26.00;;;19.10;;
68505;SDS011;55509;50.680;17.942;2022-10-15T03:05:47;25.00;;;16.20;;
68505;SDS011;55509;50.680;17.942;2022-10-15T03:08:48;27.90;;;16.70;;
68505;SDS011;55509;50.680;17.942;2022-10-15T03:11:50;29.50;;;17.10;;
68505;SDS011;55509;50.680;17.942;2022-10-15T03:17:53;29.10;;;20.70;;
68505;SDS011;55509;50.680;17.942;2022-10-15T03:20:54;35.70;;;22.20;;
68505;SDS011;55509;50.680;17.942;2022-10-15T03:23:57;31.50;;;20.40;;
68505;SDS011;55509;50.680;17.942;2022-10-15T03:26:59;29.10;;;19.50;;
68505;SDS011;55509;50.680;17.942;2022-10-15T03:33:02;45.30;;;28.20;;
68505;SDS011;55509;50.680;17.942;2022-10-15T03:39:06;38.60;;;26.40;;
68505;SDS011;55509;50.680;17.942;2022-10-15T03:42:08;39.80;;;23.50;;
68505;SDS011;55509;50.680;17.942;2022-10-15T03:48:11;38.90;;;24.50;;
68505;SDS011;55509;50.680;17.942;2022-10-15T03:51:13;38.80;;;25.20;;
68505;SDS011;55509;50.680;17.942;2022-10-15T03:54:14;36.70;;;23.00;;
68505;SDS011;55509;50.680;17.942;2022-10-15T04:00:17;35.90;;;25.80;;
68505;SDS011;55509;50.680;17.942;2022-10-15T04:06:20;48.40;;;28.00;;
68505;SDS011;55509;50.680;17.942;2022-10-15T04:12:23;47.70;;;27.80;;
68505;SDS011;55509;50.680;17.942;2022-10-15T04:15:25;39.10;;;27.20;;
68505;SDS011;55509;50.680;17.942;2022-10-15T04:18:28;36.80;;;23.70;;
68505;SDS011;55509;50.680;17.942;2022-10-15T04:21:29;36.10;;;26.50;;
68505;SDS011;55509;50.680;17.942;2022-10-15T04:27:32;34.60;;;24.90;;
68505;SDS011;55509;50.680;17.942;2022-10-15T04:33:35;36.60;;;25.70;;
68505;SDS011;55509;50.680;17.942;2022-10-15T04:36:37;40.60;;;26.80;;
68505;SDS011;55509;50.680;17.942;2022-10-15T04:42:40;46.20;;;27.00;;
68505;SDS011;55509;50.680;17.942;2022-10-15T04:48:43;33.10;;;23.90;;
68505;SDS011;55509;50.680;17.942;2022-10-15T04:51:44;47.60;;;31.70;;
68505;SDS011;55509;50.680;17.942;2022-10-15T04:57:47;38.70;;;24.90;;
68505;SDS011;55509;50.680;17.942;2022-10-15T05:00:49;39.40;;;26.30;;
68505;SDS011;55509;50.680;17.942;2022-10-15T05:06:52;39.60;;;26.20;;
68505;SDS011;55509;50.680;17.942;2022-10-15T05:12:55;46.50;;;29.50;;
68505;SDS011;55509;50.680;17.942;2022-10-15T05:22:01;44.30;;;28.40;;
68505;SDS011;55509;50.680;17.942;2022-10-15T05:31:09;42.60;;;30.30;;
68505;SDS011;55509;50.680;17.942;2022-10-15T05:34:16;36.80;;;24.60;;
68505;SDS011;55509;50.680;17.942;2022-10-15T05:37:18;48.40;;;30.50;;
68505;SDS011;55509;50.680;17.942;2022-10-15T05:43:21;41.20;;;26.20;;
68505;SDS011;55509;50.680;17.942;2022-10-15T05:46:23;41.40;;;25.80;;
68505;SDS011;55509;50.680;17.942;2022-10-15T05:49:25;45.90;;;28.00;;
68505;SDS011;55509;50.680;17.942;2022-10-15T05:52:27;37.20;;;24.80;;
68505;SDS011;55509;50.680;17.942;2022-10-15T06:05:06;48.20;;;29.40;;
68505;SDS011;55509;50.680;17.942;2022-10-15T06:08:10;39.80;;;24.70;;
68505;SDS011;55509;50.680;17.942;2022-10-15T06:14:16;32.20;;;23.20;;
68505;SDS011;55509;50.680;17.942;2022-10-15T06:20:22;40.90;;;31.10;;
68505;SDS011;55509;50.680;17.942;2022-10-15T06:23:41;43.40;;;29.10;;
68505;SDS011;55509;50.680;17.942;2022-10-15T06:29:44;41.10;;;28.30;;
68505;SDS011;55509;50.680;17.942;2022-10-15T06:35:51;36.70;;;29.50;;
68505;SDS011;55509;50.680;17.942;2022-10-15T06:38:53;36.10;;;27.80;;
68505;SDS011;55509;50.680;17.942;2022-10-15T06:41:57;40.20;;;27.30;;
68505;SDS011;55509;50.680;17.942;2022-10-15T06:48:00;37.70;;;24.90;;
68505;SDS011;55509;50.680;17.942;2022-10-15T06:51:02;41.60;;;27.40;;
68505;SDS011;55509;50.680;17.942;2022-10-15T06:54:04;34.60;;;25.90;;
68505;SDS011;55509;50.680;17.942;2022-10-15T07:03:10;33.90;;;25.10;;
68505;SDS011;55509;50.680;17.942;2022-10-15T07:09:12;35.90;;;25.60;;
68505;SDS011;55509;50.680;17.942;2022-10-15T07:12:14;36.90;;;24.90;;
68505;SDS011;55509;50.680;17.942;2022-10-15T07:15:16;32.90;;;23.20;;
68505;SDS011;55509;50.680;17.942;2022-10-15T07:18:21;37.10;;;24.20;;
68505;SDS011;55509;50.680;17.942;2022-10-15T07:21:23;36.10;;;25.00;;
68505;SDS011;55509;50.680;17.942;2022-10-15T07:24:25;28.70;;;23.50;;
68505;SDS011;55509;50.680;17.942;2022-10-15T07:27:26;30.40;;;21.90;;
68505;SDS011;55509;50.680;17.942;2022-10-15T07:30:28;37.00;;;22.20;;
68505;SDS011;55509;50.680;17.942;2022-10-15T07:33:29;31.60;;;23.20;;
68505;SDS011;55509;50.680;17.942;2022-10-15T07:36:31;28.50;;;24.30;;
68505;SDS011;55509;50.680;17.942;2022-10-15T07:39:33;29.10;;;22.80;;
68505;SDS011;55509;50.680;17.942;2022-10-15T07:42:34;24.80;;;19.90;;
68505;SDS011;55509;50.680;17.942;2022-10-15T07:45:36;28.60;;;20.90;;
68505;SDS011;55509;50.680;17.942;2022-10-15T07:48:59;29.30;;;21.70;;
68505;SDS011;55509;50.680;17.942;2022-10-15T07:52:05;27.00;;;20.80;;
68505;SDS011;55509;50.680;17.942;2022-10-15T07:55:09;30.20;;;21.40;;
68505;SDS011;55509;50.680;17.942;2022-10-15T07:58:18;28.30;;;23.50;;
68505;SDS011;55509;50.680;17.942;2022-10-15T08:01:23;28.10;;;23.50;;
68505;SDS011;55509;50.680;17.942;2022-10-15T08:04:27;31.00;;;23.90;;
68505;SDS011;55509;50.680;17.942;2022-10-15T08:07:35;33.60;;;24.50;;
68505;SDS011;55509;50.680;17.942;2022-10-15T08:10:40;31.80;;;25.10;;
68505;SDS011;55509;50.680;17.942;2022-10-15T08:13:41;28.40;;;22.90;;
68505;SDS011;55509;50.680;17.942;2022-10-15T08:16:52;31.50;;;24.20;;
68505;SDS011;55509;50.680;17.942;2022-10-15T08:20:02;29.40;;;24.10;;
68505;SDS011;55509;50.680;17.942;2022-10-15T08:23:06;39.30;;;26.40;;
68505;SDS011;55509;50.680;17.942;2022-10-15T08:26:15;23.40;;;20.90;;
68505;SDS011;55509;50.680;17.942;2022-10-15T08:29:23;27.50;;;24.50;;
68505;SDS011;55509;50.680;17.942;2022-10-15T08:32:24;32.40;;;24.80;;
68505;SDS011;55509;50.680;17.942;2022-10-15T08:35:26;30.70;;;23.60;;
68505;SDS011;55509;50.680;17.942;2022-10-15T08:38:28;26.00;;;20.70;;
68505;SDS011;55509;50.680;17.942;2022-10-15T08:41:52;28.20;;;23.40;;
68505;SDS011;55509;50.680;17.942;2022-10-15T08:45:05;30.40;;;26.40;;
68505;SDS011;55509;50.680;17.942;2022-10-15T08:48:17;34.80;;;25.50;;
68505;SDS011;55509;50.680;17.942;2022-10-15T08:51:38;34.70;;;25.00;;
68505;SDS011;55509;50.680;17.942;2022-10-15T08:54:42;30.90;;;25.30;;
68505;SDS011;55509;50.680;17.942;2022-10-15T09:00:49;30.10;;;22.00;;
68505;SDS011;55509;50.680;17.942;2022-10-15T09:03:58;31.40;;;21.80;;
68505;SDS011;55509;50.680;17.942;2022-10-15T09:07:03;35.50;;;24.20;;
68505;SDS011;55509;50.680;17.942;2022-10-15T09:10:17;24.50;;;22.00;;
68505;SDS011;55509;50.680;17.942;2022-10-15T09:16:28;28.10;;;21.10;;
68505;SDS011;55509;50.680;17.942;2022-10-15T09:19:36;27.90;;;23.00;;
68505;SDS011;55509;50.680;17.942;2022-10-15T09:22:40;25.60;;;22.90;;
68505;SDS011;55509;50.680;17.942;2022-10-15T09:25:42;22.60;;;20.10;;
68505;SDS011;55509;50.680;17.942;2022-10-15T09:35:17;24.90;;;22.30;;
68505;SDS011;55509;50.680;17.942;2022-10-15T09:38:36;26.00;;;21.80;;
68505;SDS011;55509;50.680;17.942;2022-10-15T09:45:11;20.90;;;18.70;;
68505;SDS011;55509;50.680;17.942;2022-10-15T09:48:18;21.60;;;19.30;;
68505;SDS011;55509;50.680;17.942;2022-10-15T09:51:26;22.70;;;20.40;;
68505;SDS011;55509;50.680;17.942;2022-10-15T10:01:19;21.70;;;19.50;;
68505;SDS011;55509;50.680;17.942;2022-10-15T10:04:23;20.30;;;18.30;;
68505;SDS011;55509;50.680;17.942;2022-10-15T10:07:35;20.50;;;18.50;;
68505;SDS011;55509;50.680;17.942;2022-10-15T10:10:38;20.80;;;18.60;;
68505;SDS011;55509;50.680;17.942;2022-10-15T10:13:55;20.70;;;18.50;;
68505;SDS011;55509;50.680;17.942;2022-10-15T10:17:03;20.90;;;18.80;;
68505;SDS011;55509;50.680;17.942;2022-10-15T10:23:22;18.10;;;16.20;;
68505;SDS011;55509;50.680;17.942;2022-10-15T10:26:25;20.20;;;17.40;;
68505;SDS011;55509;50.680;17.942;2022-10-15T10:29:27;22.30;;;19.00;;
68505;SDS011;55509;50.680;17.942;2022-10-15T10:32:34;19.60;;;17.70;;
68505;SDS011;55509;50.680;17.942;2022-10-15T10:35:46;26.00;;;19.30;;
68505;SDS011;55509;50.680;17.942;2022-10-15T10:45:24;20.60;;;18.40;;
68505;SDS011;55509;50.680;17.942;2022-10-15T10:48:33;21.40;;;19.10;;
68505;SDS011;55509;50.680;17.942;2022-10-15T10:51:47;22.60;;;18.70;;
68505;SDS011;55509;50.680;17.942;2022-10-15T10:57:59;23.30;;;19.80;;
68505;SDS011;55509;50.680;17.942;2022-10-15T11:01:01;24.50;;;16.20;;
68505;SDS011;55509;50.680;17.942;2022-10-15T11:04:12;23.30;;;17.60;;
68505;SDS011;55509;50.680;17.942;2022-10-15T11:07:26;27.10;;;19.90;;
68505;SDS011;55509;50.680;17.942;2022-10-15T11:17:50;23.10;;;18.70;;
68505;SDS011;55509;50.680;17.942;2022-10-15T11:35:04;18.70;;;16.60;;
68505;SDS011;55509;50.680;17.942;2022-10-15T11:38:18;30.30;;;18.50;;
68505;SDS011;55509;50.680;17.942;2022-10-15T11:48:11;21.30;;;18.70;;
68505;SDS011;55509;50.680;17.942;2022-10-15T11:51:27;20.00;;;17.80;;
68505;SDS011;55509;50.680;17.942;2022-10-15T11:57:42;21.60;;;17.90;;
68505;SDS011;55509;50.680;17.942;2022-10-15T12:00:48;19.30;;;17.30;;
68505;SDS011;55509;50.680;17.942;2022-10-15T12:07:03;22.20;;;18.70;;
68505;SDS011;55509;50.680;17.942;2022-10-15T12:13:18;19.70;;;17.70;;
68505;SDS011;55509;50.680;17.942;2022-10-15T12:16:44;20.10;;;16.60;;
68505;SDS011;55509;50.680;17.942;2022-10-15T12:19:55;15.90;;;14.40;;
68505;SDS011;55509;50.680;17.942;2022-10-15T12:23:20;20.40;;;18.30;;
68505;SDS011;55509;50.680;17.942;2022-10-15T12:26:28;20.80;;;18.70;;
68505;SDS011;55509;50.680;17.942;2022-10-15T12:29:34;19.70;;;17.70;;
68505;SDS011;55509;50.680;17.942;2022-10-15T12:32:45;23.10;;;16.70;;
68505;SDS011;55509;50.680;17.942;2022-10-15T12:35:52;23.80;;;18.40;;
68505;SDS011;55509;50.680;17.942;2022-10-15T12:42:14;23.90;;;16.70;;
68505;SDS011;55509;50.680;17.942;2022-10-15T12:45:37;24.90;;;19.20;;
68505;SDS011;55509;50.680;17.942;2022-10-15T12:48:41;19.90;;;17.80;;
68505;SDS011;55509;50.680;17.942;2022-10-15T12:52:51;22.10;;;17.50;;
68505;SDS011;55509;50.680;17.942;2022-10-15T12:56:42;19.60;;;16.60;;
68505;SDS011;55509;50.680;17.942;2022-10-15T13:02:53;24.80;;;19.30;;
68505;SDS011;55509;50.680;17.942;2022-10-15T13:06:03;20.80;;;18.60;;
68505;SDS011;55509;50.680;17.942;2022-10-15T13:09:34;25.30;;;21.70;;
68505;SDS011;55509;50.680;17.942;2022-10-15T13:12:40;23.90;;;20.20;;
68505;SDS011;55509;50.680;17.942;2022-10-15T13:15:57;27.90;;;21.20;;
68505;SDS011;55509;50.680;17.942;2022-10-15T13:19:26;24.30;;;21.30;;
68505;SDS011;55509;50.680;17.942;2022-10-15T13:23:17;25.30;;;21.30;;
68505;SDS011;55509;50.680;17.942;2022-10-15T13:26:29;19.30;;;16.70;;
68505;SDS011;55509;50.680;17.942;2022-10-15T13:29:32;25.00;;;20.70;;
68505;SDS011;55509;50.680;17.942;2022-10-15T13:32:56;23.30;;;20.70;;
68505;SDS011;55509;50.680;17.942;2022-10-15T13:36:07;26.00;;;22.30;;
68505;SDS011;55509;50.680;17.942;2022-10-15T13:46:42;24.50;;;20.90;;
68505;SDS011;55509;50.680;17.942;2022-10-15T13:53:36;27.00;;;22.40;;
68505;SDS011;55509;50.680;17.942;2022-10-15T13:57:16;23.40;;;19.70;;
68505;SDS011;55509;50.680;17.942;2022-10-15T14:00:36;28.10;;;19.50;;
68505;SDS011;55509;50.680;17.942;2022-10-15T14:04:13;24.20;;;19.50;;
68505;SDS011;55509;50.680;17.942;2022-10-15T14:07:23;22.30;;;19.30;;
68505;SDS011;55509;50.680;17.942;2022-10-15T14:10:27;27.00;;;21.40;;
68505;SDS011;55509;50.680;17.942;2022-10-15T14:13:31;22.50;;;20.10;;
68505;SDS011;55509;50.680;17.942;2022-10-15T14:16:39;28.40;;;20.70;;
68505;SDS011;55509;50.680;17.942;2022-10-15T14:19:55;22.60;;;19.20;;
68505;SDS011;55509;50.680;17.942;2022-10-15T14:23:00;33.20;;;22.10;;
68505;SDS011;55509;50.680;17.942;2022-10-15T14:26:23;29.40;;;23.10;;
68505;SDS011;55509;50.680;17.942;2022-10-15T14:29:26;29.60;;;21.30;;
68505;SDS011;55509;50.680;17.942;2022-10-15T14:32:31;24.30;;;20.50;;
68505;SDS011;55509;50.680;17.942;2022-10-15T14:36:03;32.40;;;24.10;;
68505;SDS011;55509;50.680;17.942;2022-10-15T14:39:28;29.40;;;23.50;;
68505;SDS011;55509;50.680;17.942;2022-10-15T14:42:32;24.30;;;21.10;;
68505;SDS011;55509;50.680;17.942;2022-10-15T14:45:41;25.30;;;21.30;;
68505;SDS011;55509;50.680;17.942;2022-10-15T14:48:59;26.30;;;23.00;;
68505;SDS011;55509;50.680;17.942;2022-10-15T14:52:03;29.00;;;21.20;;
68505;SDS011;55509;50.680;17.942;2022-10-15T14:55:25;31.80;;;24.60;;
68505;SDS011;55509;50.680;17.942;2022-10-15T14:58:33;27.70;;;21.20;;
68505;SDS011;55509;50.680;17.942;2022-10-15T15:01:37;34.30;;;28.30;;
68505;SDS011;55509;50.680;17.942;2022-10-15T15:04:40;33.30;;;24.80;;
68505;SDS011;55509;50.680;17.942;2022-10-15T15:07:44;34.40;;;25.10;;
68505;SDS011;55509;50.680;17.942;2022-10-15T15:10:48;28.50;;;21.50;;
68505;SDS011;55509;50.680;17.942;2022-10-15T15:13:51;23.50;;;19.40;;
68505;SDS011;55509;50.680;17.942;2022-10-15T15:16:54;36.50;;;28.10;;
68505;SDS011;55509;50.680;17.942;2022-10-15T15:19:56;28.80;;;21.40;;
68505;SDS011;55509;50.680;17.942;2022-10-15T15:22:58;29.50;;;21.20;;
68505;SDS011;55509;50.680;17.942;2022-10-15T15:25:59;30.80;;;23.80;;
68505;SDS011;55509;50.680;17.942;2022-10-15T15:29:01;32.10;;;25.80;;
68505;SDS011;55509;50.680;17.942;2022-10-15T15:32:03;31.50;;;23.90;;
68505;SDS011;55509;50.680;17.942;2022-10-15T15:35:09;31.20;;;20.50;;
68505;SDS011;55509;50.680;17.942;2022-10-15T15:38:15;29.20;;;23.70;;
68505;SDS011;55509;50.680;17.942;2022-10-15T15:41:20;34.80;;;26.30;;
68505;SDS011;55509;50.680;17.942;2022-10-15T15:44:23;28.40;;;22.70;;
68505;SDS011;55509;50.680;17.942;2022-10-15T15:47:24;29.50;;;23.20;;
68505;SDS011;55509;50.680;17.942;2022-10-15T15:50:26;23.00;;;20.60;;
68505;SDS011;55509;50.680;17.942;2022-10-15T15:53:28;29.30;;;23.50;;
68505;SDS011;55509;50.680;17.942;2022-10-15T15:56:29;24.60;;;21.10;;
68505;SDS011;55509;50.680;17.942;2022-10-15T15:59:31;32.70;;;26.90;;
68505;SDS011;55509;50.680;17.942;2022-10-15T16:02:33;29.20;;;23.30;;
68505;SDS011;55509;50.680;17.942;2022-10-15T16:05:35;28.40;;;23.30;;
68505;SDS011;55509;50.680;17.942;2022-10-15T16:08:38;31.80;;;25.10;;
68505;SDS011;55509;50.680;17.942;2022-10-15T16:11:40;27.60;;;21.70;;
68505;SDS011;55509;50.680;17.942;2022-10-15T16:14:41;26.40;;;22.70;;
68505;SDS011;55509;50.680;17.942;2022-10-15T16:20:44;32.70;;;24.60;;
68505;SDS011;55509;50.680;17.942;2022-10-15T16:23:46;31.30;;;25.00;;
68505;SDS011;55509;50.680;17.942;2022-10-15T16:29:49;30.60;;;23.90;;
68505;SDS011;55509;50.680;17.942;2022-10-15T16:32:50;31.00;;;26.00;;
68505;SDS011;55509;50.680;17.942;2022-10-15T16:38:57;25.30;;;21.20;;
68505;SDS011;55509;50.680;17.942;2022-10-15T16:41:58;30.70;;;21.90;;
68505;SDS011;55509;50.680;17.942;2022-10-15T16:45:00;31.10;;;20.60;;
68505;SDS011;55509;50.680;17.942;2022-10-15T16:51:07;23.10;;;20.70;;
68505;SDS011;55509;50.680;17.942;2022-10-15T16:54:11;28.60;;;21.90;;
68505;SDS011;55509;50.680;17.942;2022-10-15T16:57:15;25.90;;;21.20;;
68505;SDS011;55509;50.680;17.942;2022-10-15T17:00:17;26.30;;;20.00;;
68505;SDS011;55509;50.680;17.942;2022-10-15T17:03:19;25.10;;;19.60;;
68505;SDS011;55509;50.680;17.942;2022-10-15T17:09:23;23.90;;;19.40;;
68505;SDS011;55509;50.680;17.942;2022-10-15T17:15:26;23.10;;;17.20;;
68505;SDS011;55509;50.680;17.942;2022-10-15T17:18:28;28.50;;;20.30;;
68505;SDS011;55509;50.680;17.942;2022-10-15T17:27:32;27.80;;;16.30;;
68505;SDS011;55509;50.680;17.942;2022-10-15T17:30:36;27.40;;;21.30;;
68505;SDS011;55509;50.680;17.942;2022-10-15T17:33:39;26.10;;;18.00;;
68505;SDS011;55509;50.680;17.942;2022-10-15T17:36:43;30.80;;;21.70;;
68505;SDS011;55509;50.680;17.942;2022-10-15T17:39:49;25.10;;;18.10;;
68505;SDS011;55509;50.680;17.942;2022-10-15T17:42:53;23.40;;;18.20;;
68505;SDS011;55509;50.680;17.942;2022-10-15T17:46:12;24.20;;;18.30;;
68505;SDS011;55509;50.680;17.942;2022-10-15T17:49:16;27.30;;;19.20;;
68505;SDS011;55509;50.680;17.942;2022-10-15T17:52:18;21.90;;;17.20;;
68505;SDS011;55509;50.680;17.942;2022-10-15T17:55:20;28.30;;;17.10;;
68505;SDS011;55509;50.680;17.942;2022-10-15T17:58:22;24.30;;;14.70;;
68505;SDS011;55509;50.680;17.942;2022-10-15T18:01:26;19.70;;;15.30;;
68505;SDS011;55509;50.680;17.942;2022-10-15T18:04:30;23.10;;;14.90;;
68505;SDS011;55509;50.680;17.942;2022-10-15T18:07:32;22.40;;;16.80;;
68505;SDS011;55509;50.680;17.942;2022-10-15T18:10:37;20.30;;;17.00;;
68505;SDS011;55509;50.680;17.942;2022-10-15T18:13:39;24.20;;;18.70;;
68505;SDS011;55509;50.680;17.942;2022-10-15T18:16:41;21.90;;;15.30;;
68505;SDS011;55509;50.680;17.942;2022-10-15T18:19:43;25.70;;;16.30;;
68505;SDS011;55509;50.680;17.942;2022-10-15T18:22:46;28.90;;;20.30;;
68505;SDS011;55509;50.680;17.942;2022-10-15T18:28:50;22.10;;;16.90;;
68505;SDS011;55509;50.680;17.942;2022-10-15T18:31:53;17.20;;;13.90;;
68505;SDS011;55509;50.680;17.942;2022-10-15T18:34:56;33.50;;;20.30;;
68505;SDS011;55509;50.680;17.942;2022-10-15T18:40:59;15.20;;;12.50;;
68505;SDS011;55509;50.680;17.942;2022-10-15T18:44:02;18.10;;;11.90;;
68505;SDS011;55509;50.680;17.942;2022-10-15T18:47:05;18.10;;;13.50;;
68505;SDS011;55509;50.680;17.942;2022-10-15T18:53:09;10.60;;;9.30;;
68505;SDS011;55509;50.680;17.942;2022-10-15T18:56:11;11.40;;;9.10;;
68505;SDS011;55509;50.680;17.942;2022-10-15T18:59:14;11.50;;;10.30;;
68505;SDS011;55509;50.680;17.942;2022-10-15T19:05:16;10.00;;;8.80;;
68505;SDS011;55509;50.680;17.942;2022-10-15T19:08:18;11.80;;;8.90;;
68505;SDS011;55509;50.680;17.942;2022-10-15T19:11:20;13.30;;;10.60;;
68505;SDS011;55509;50.680;17.942;2022-10-15T19:14:21;14.40;;;10.60;;
68505;SDS011;55509;50.680;17.942;2022-10-15T19:17:25;10.50;;;8.40;;
68505;SDS011;55509;50.680;17.942;2022-10-15T19:20:26;9.50;;;8.20;;
68505;SDS011;55509;50.680;17.942;2022-10-15T19:26:30;14.80;;;9.20;;
68505;SDS011;55509;50.680;17.942;2022-10-15T19:29:31;10.20;;;8.00;;
68505;SDS011;55509;50.680;17.942;2022-10-15T19:35:41;8.70;;;7.50;;
68505;SDS011;55509;50.680;17.942;2022-10-15T19:38:44;11.80;;;8.00;;
68505;SDS011;55509;50.680;17.942;2022-10-15T19:41:46;8.60;;;6.80;;
68505;SDS011;55509;50.680;17.942;2022-10-15T19:44:49;8.30;;;6.60;;
68505;SDS011;55509;50.680;17.942;2022-10-15T19:47:50;5.50;;;5.00;;
68505;SDS011;55509;50.680;17.942;2022-10-15T19:50:52;8.20;;;6.80;;
68505;SDS011;55509;50.680;17.942;2022-10-15T19:56:56;6.50;;;5.20;;
68505;SDS011;55509;50.680;17.942;2022-10-15T19:59:58;9.80;;;6.00;;
68505;SDS011;55509;50.680;17.942;2022-10-15T20:06:01;11.00;;;8.70;;
68505;SDS011;55509;50.680;17.942;2022-10-15T20:09:06;6.40;;;5.50;;
68505;SDS011;55509;50.680;17.942;2022-10-15T20:12:09;9.10;;;6.50;;
68505;SDS011;55509;50.680;17.942;2022-10-15T20:15:11;7.00;;;5.40;;
68505;SDS011;55509;50.680;17.942;2022-10-15T20:21:14;8.40;;;6.20;;
68505;SDS011;55509;50.680;17.942;2022-10-15T20:24:17;5.80;;;5.00;;
68505;SDS011;55509;50.680;17.942;2022-10-15T20:27:18;5.90;;;4.50;;
68505;SDS011;55509;50.680;17.942;2022-10-15T20:33:21;6.20;;;4.40;;
68505;SDS011;55509;50.680;17.942;2022-10-15T20:36:23;6.30;;;5.30;;
68505;SDS011;55509;50.680;17.942;2022-10-15T20:39:26;7.80;;;6.80;;
68505;SDS011;55509;50.680;17.942;2022-10-15T20:45:30;7.00;;;5.80;;
68505;SDS011;55509;50.680;17.942;2022-10-15T20:48:38;5.40;;;4.70;;
68505;SDS011;55509;50.680;17.942;2022-10-15T20:51:44;7.00;;;5.90;;
68505;SDS011;55509;50.680;17.942;2022-10-15T20:54:46;5.70;;;5.10;;
68505;SDS011;55509;50.680;17.942;2022-10-15T20:57:48;7.90;;;6.00;;
68505;SDS011;55509;50.680;17.942;2022-10-15T21:00:50;6.80;;;6.10;;
68505;SDS011;55509;50.680;17.942;2022-10-15T21:06:53;9.00;;;6.20;;
68505;SDS011;55509;50.680;17.942;2022-10-15T21:09:54;5.00;;;4.50;;
68505;SDS011;55509;50.680;17.942;2022-10-15T21:12:56;5.60;;;5.00;;
68505;SDS011;55509;50.680;17.942;2022-10-15T21:16:01;6.50;;;6.00;;
68505;SDS011;55509;50.680;17.942;2022-10-15T21:19:05;11.00;;;5.20;;
68505;SDS011;55509;50.680;17.942;2022-10-15T21:22:07;6.10;;;5.40;;
68505;SDS011;55509;50.680;17.942;2022-10-15T21:25:09;6.00;;;5.40;;
68505;SDS011;55509;50.680;17.942;2022-10-15T21:31:15;8.20;;;5.30;;
68505;SDS011;55509;50.680;17.942;2022-10-15T21:34:18;7.10;;;5.10;;
68505;SDS011;55509;50.680;17.942;2022-10-15T21:37:20;5.20;;;4.60;;
68505;SDS011;55509;50.680;17.942;2022-10-15T21:43:23;6.00;;;5.40;;
68505;SDS011;55509;50.680;17.942;2022-10-15T21:49:26;5.50;;;5.00;;
68505;SDS011;55509;50.680;17.942;2022-10-15T21:55:29;8.00;;;4.80;;
68505;SDS011;55509;50.680;17.942;2022-10-15T22:04:35;9.60;;;7.50;;
68505;SDS011;55509;50.680;17.942;2022-10-15T22:07:37;6.90;;;5.20;;
68505;SDS011;55509;50.680;17.942;2022-10-15T22:13:40;7.30;;;5.40;;
68505;SDS011;55509;50.680;17.942;2022-10-15T22:16:43;8.50;;;6.50;;
68505;SDS011;55509;50.680;17.942;2022-10-15T22:19:45;7.30;;;5.70;;
68505;SDS011;55509;50.680;17.942;2022-10-15T22:25:58;8.00;;;5.80;;
68505;SDS011;55509;50.680;17.942;2022-10-15T22:29:00;10.20;;;7.00;;
68505;SDS011;55509;50.680;17.942;2022-10-15T22:32:03;9.40;;;5.70;;
68505;SDS011;55509;50.680;17.942;2022-10-15T22:35:05;7.60;;;6.90;;
68505;SDS011;55509;50.680;17.942;2022-10-15T22:38:07;11.80;;;7.80;;
68505;SDS011;55509;50.680;17.942;2022-10-15T22:44:14;8.80;;;7.50;;
68505;SDS011;55509;50.680;17.942;2022-10-15T22:47:20;8.70;;;6.20;;
68505;SDS011;55509;50.680;17.942;2022-10-15T22:53:23;7.80;;;6.80;;
68505;SDS011;55509;50.680;17.942;2022-10-15T22:56:24;12.10;;;8.00;;
68505;SDS011;55509;50.680;17.942;2022-10-15T22:59:28;10.80;;;8.80;;
68505;SDS011;55509;50.680;17.942;2022-10-15T23:05:31;12.80;;;9.20;;
68505;SDS011;55509;50.680;17.942;2022-10-15T23:08:32;10.90;;;8.40;;
68505;SDS011;55509;50.680;17.942;2022-10-15T23:11:35;11.00;;;8.60;;
68505;SDS011;55509;50.680;17.942;2022-10-15T23:14:39;11.10;;;9.70;;
68505;SDS011;55509;50.680;17.942;2022-10-15T23:20:42;12.20;;;10.10;;